Terminal Aerodrome Forecast
Issued by NWS

Home | Current Version | Previous Version | Text Only | Print | Product List | Glossary On
Versions: 1 2 3 4 5 6 7 8 9 10 11 12 13 14 15 16
000
FTUS46 KSGX 031121
TAFSNA
TAF
KSNA 031121Z 0312/0412 VRB03KT P6SM OVC013
     FM031900 22009KT P6SM FEW015 SCT250
     FM040300 VRB05KT P6SM SCT014
     FM040800 VRB03KT P6SM OVC012=

USA.gov is the U.S. government's official web portal to all federal, state and local government web resources and services.